INFORMACIÓN METAR y TAF
METAR FOR LICJ
ADDS - METARS form results

(0213 UTC 28 January 2021)
Data provider http://aviationweather.gov/metar/data/
 
METAR text: LICJ 280150Z 18006KT 9999 SCT050 11/09 Q1015
Conditions at: LICJ (PALERMO/POINT RA, IT) observed 0150 UTC 28 January 2021
Temperature: 11.0°C (52°F)
Dewpoint: 9.0°C (48°F) [RH = 87%]
Pressure (altimeter): 29.97 inches Hg (1015.0 mb)
Winds: from the S (180 degrees) at 7 MPH (6 knots; 3.1 m/s)
Visibility: 6 or more miles (10+ km)
Ceiling: at least 12,000 feet AGL
Clouds: scattered clouds at 5000 feet AGL
Weather: no significant weather observed at this time

METAR text: LICJ 280120Z 21008KT 9999 SCT025 11/09 Q1015
Conditions at: LICJ (PALERMO/POINT RA, IT) observed 0120 UTC 28 January 2021
Temperature: 11.0°C (52°F)
Dewpoint: 9.0°C (48°F) [RH = 87%]
Pressure (altimeter): 29.97 inches Hg (1015.0 mb)
Winds: from the SSW (210 degrees) at 9 MPH (8 knots; 4.1 m/s)
Visibility: 6 or more miles (10+ km)
Ceiling: at least 12,000 feet AGL
Clouds: scattered clouds at 2500 feet AGL
Weather: no significant weather observed at this time

Forecast for: LICJ (PALERMO/POINT RA, IT)
Text: TAF LICJ 272300Z 2800/2824 22008KT 9999 FEW030
Forecast period: 0000 to 0600 UTC 28 January 2021
Forecast type: FROM: standard forecast or significant change
Winds: from the SW (220 degrees) at 9 MPH (8 knots; 4.1 m/s)
Visibility: 6 or more miles (10+ km)
Ceiling: at least 12,000 feet AGL
Clouds: few clouds at 3000 feet AGL
Weather: no significant weather forecast for this period
Text: TEMPO 2800/2808 SHRA
Forecast period: 0000 to 0800 UTC 28 January 2021
Forecast type: TEMPORARY: The following changes expected for less than half the time period
Visibility: missing
Ceiling: unknown
Clouds: missing
Weather: SHRA  (rain showers)
Text: BECMG 2806/2809 34012KT
Forecast period: 0600 to 1500 UTC 28 January 2021
Forecast type: BECOMING: Conditions expected to become as follows by 0900 UTC 28 January 2021
Winds: from the NNW (340 degrees) at 14 MPH (12 knots; 6.2 m/s)
Visibility: 6 or more miles (10+ km)
Ceiling: at least 12,000 feet AGL
Clouds: few clouds at 3000 feet AGL
Weather: no significant weather forecast for this period
Text: BECMG 2815/2818 20010KT
Forecast period: 1500 UTC 28 January 2021 to 0000 UTC 29 January 2021
Forecast type: BECOMING: Conditions expected to become as follows by 1800 UTC 28 January 2021
Winds: from the SSW (200 degrees) at 12 MPH (10 knots; 5.1 m/s)
Visibility: 6 or more miles (10+ km)
Ceiling: at least 12,000 feet AGL
Clouds: few clouds at 3000 feet AGL
Weather: no significant weather forecast for this period

 MAPA DE AEROPUERTO

 INFORMACIÓN DE PISTA